الصفحة الرئيسية
METAR-TAF:

METAR-TAF

مطار :

بونبي, مايكرونيزيا

دائرة عرض: 06-59N, خط طول: 158-12E, ارتفاع: 2 متر

METAR: مفقودة

زمن: 23:45 (12:45 UTC)

توقعات

تاريخ ووقت الإصدار 1ساعة و 15 دقيقة قبل الساعة 11:30UTC
التوقعات صالحة من26 الساعة 12 UTC إلى 27 الساعة 12 UTC
ريح 6 عقدة من الشمال الشرقي
الرؤية: 10 كم
غيوم قليلة على ارتفاع 1800 قدم

TAF: PTPN 261130Z 2612/2712 05006KT P6SM FEW018

أرصاد الطقس والتوقعات من أكثر من 4000 مطار (تقارير الطقس للمطار METAR والتنبؤ بالطقس بالمطارTAF).

المحطات المتاحة هي النقط الصفراء والحمراء على الخريطة.

حرك المؤشر فوق النقطة لمعرفة اسم المحطة.

ثم انقر لمعرفة أرصاد وتوقعات الطقس.

لتغيير الخارطة: اضغط على الأزرار الخضراء مع رمز الصليب الأسود للتكبير. على الزر الأخضر مع شرطة للتصغير، أو على الأسهم الخضراء للخرائط المجاورة.


METAR-TAF: